DKH1122 ZSPD-ZPPP
Flight info
| Callsign | DKH1122 |
|---|---|
| Flight time | N/A |
| Altitude | 34100 |
| Route | POMOK G330 UNTAN G345 OLRIS R343 MADUK/K0841S1100 W51 LEGIV W164 ADGOL W50 XSH W80 IDGAG A581 QNX W136 XISLI XIS1L |
| Aircraft | A320/M-SDE3FGHIRWY/LB1 |
Departure
| Time | N/A |
|---|---|
| Airport | Shanghai Pudong International Airport (ZSPD) |
Arrival
| Time | 2026-05-05 14:18 |
|---|---|
| Airport | Kunming Changshui International Airport (ZPPP) |
| Time | Latitude | Longitude | Altitude | Speed | Heading |
|---|---|---|---|---|---|
| 2026-05-05 13:49 | 27.38361 | 106.23939 | 36338 ft | 400 kts | 261° |
| 2026-05-05 13:49 | 27.37408 | 106.20963 | 35701 ft | 411 kts | 248° |
| 2026-05-05 13:49 | 27.36137 | 106.18066 | 35078 ft | 415 kts | 249° |
| 2026-05-05 13:50 | 27.34913 | 106.15109 | 34481 ft | 418 kts | 249° |
| 2026-05-05 13:50 | 27.33715 | 106.12120 | 34084 ft | 420 kts | 249° |
| 2026-05-05 13:50 | 27.32517 | 106.09110 | 33915 ft | 423 kts | 249° |
| 2026-05-05 13:50 | 27.31305 | 106.06093 | 33938 ft | 425 kts | 249° |
| 2026-05-05 13:51 | 27.28834 | 106.00040 | 33941 ft | 426 kts | 249° |
| 2026-05-05 13:51 | 27.24863 | 105.90429 | 33935 ft | 422 kts | 250° |
| 2026-05-05 13:52 | 27.19914 | 105.78473 | 33935 ft | 422 kts | 250° |
| 2026-05-05 13:52 | 27.14968 | 105.66518 | 33937 ft | 422 kts | 250° |
| 2026-05-05 13:53 | 27.10022 | 105.54612 | 33942 ft | 420 kts | 249° |
| 2026-05-05 13:53 | 27.05081 | 105.42771 | 33936 ft | 418 kts | 249° |
| 2026-05-05 13:54 | 27.00138 | 105.30973 | 33924 ft | 417 kts | 249° |
| 2026-05-05 13:54 | 26.95194 | 105.19190 | 33921 ft | 418 kts | 249° |
| 2026-05-05 13:55 | 26.90240 | 105.07419 | 33908 ft | 418 kts | 248° |
| 2026-05-05 13:55 | 26.85178 | 104.95390 | 33938 ft | 436 kts | 248° |
| 2026-05-05 13:56 | 26.79414 | 104.75204 | 33810 ft | 427 kts | 259° |
| 2026-05-05 13:56 | 26.76299 | 104.62722 | 33916 ft | 419 kts | 244° |
| 2026-05-05 13:56 | 26.67869 | 104.53454 | 34008 ft | 432 kts | 223° |
| 2026-05-05 13:57 | 26.49214 | 104.36482 | 33891 ft | 434 kts | 223° |
| 2026-05-05 13:57 | 26.36117 | 104.24653 | 33949 ft | 432 kts | 222° |
| 2026-05-05 13:58 | 26.33810 | 104.22568 | 33679 ft | 432 kts | 222° |
| 2026-05-05 13:58 | 26.31473 | 104.20458 | 33402 ft | 433 kts | 222° |
| 2026-05-05 13:58 | 26.29122 | 104.18338 | 33120 ft | 435 kts | 222° |
| 2026-05-05 13:58 | 26.26761 | 104.16211 | 32837 ft | 438 kts | 222° |
| 2026-05-05 13:59 | 26.22002 | 104.11928 | 32477 ft | 442 kts | 222° |
| 2026-05-05 13:59 | 26.19585 | 104.09756 | 31759 ft | 452 kts | 224° |
| 2026-05-05 14:00 | 26.14679 | 104.05347 | 31036 ft | 454 kts | 223° |
| 2026-05-05 14:00 | 26.13019 | 104.03857 | 30801 ft | 455 kts | 223° |
| 2026-05-05 14:00 | 26.09746 | 104.00920 | 30350 ft | 458 kts | 223° |
| 2026-05-05 14:00 | 26.07262 | 103.98689 | 30008 ft | 459 kts | 223° |
| 2026-05-05 14:01 | 26.04772 | 103.96457 | 29647 ft | 460 kts | 223° |
| 2026-05-05 14:01 | 26.02287 | 103.94234 | 29249 ft | 457 kts | 223° |
| 2026-05-05 14:01 | 25.99819 | 103.92021 | 28847 ft | 453 kts | 224° |
| 2026-05-05 14:01 | 25.97602 | 103.89590 | 28459 ft | 443 kts | 234° |
| 2026-05-05 14:02 | 25.95831 | 103.86838 | 28078 ft | 435 kts | 243° |
| 2026-05-05 14:02 | 25.94315 | 103.83947 | 27716 ft | 432 kts | 243° |
| 2026-05-05 14:02 | 25.92809 | 103.81074 | 27335 ft | 429 kts | 243° |
| 2026-05-05 14:02 | 25.91310 | 103.78221 | 26978 ft | 425 kts | 243° |
| 2026-05-05 14:03 | 25.89797 | 103.75405 | 26603 ft | 423 kts | 239° |
| 2026-05-05 14:03 | 25.87952 | 103.72865 | 26248 ft | 424 kts | 229° |
| 2026-05-05 14:03 | 25.85693 | 103.70755 | 25893 ft | 426 kts | 219° |
| 2026-05-05 14:03 | 25.83262 | 103.68884 | 25475 ft | 423 kts | 219° |
| 2026-05-05 14:04 | 25.80856 | 103.67026 | 25014 ft | 420 kts | 219° |
| 2026-05-05 14:04 | 25.78500 | 103.65202 | 24574 ft | 416 kts | 219° |
| 2026-05-05 14:04 | 25.76142 | 103.63372 | 24139 ft | 412 kts | 219° |
| 2026-05-05 14:04 | 25.73800 | 103.61552 | 23698 ft | 409 kts | 219° |
| 2026-05-05 14:05 | 25.71481 | 103.59749 | 23242 ft | 405 kts | 219° |
| 2026-05-05 14:05 | 25.69181 | 103.57965 | 22773 ft | 403 kts | 219° |
| 2026-05-05 14:05 | 25.66890 | 103.56185 | 22391 ft | 401 kts | 219° |
| 2026-05-05 14:05 | 25.64609 | 103.54417 | 22013 ft | 399 kts | 219° |
| 2026-05-05 14:06 | 25.62356 | 103.52676 | 21622 ft | 390 kts | 218° |
| 2026-05-05 14:06 | 25.60151 | 103.50976 | 21260 ft | 382 kts | 218° |
| 2026-05-05 14:06 | 25.57990 | 103.49309 | 20904 ft | 374 kts | 219° |
| 2026-05-05 14:06 | 25.55873 | 103.47673 | 20545 ft | 368 kts | 219° |
| 2026-05-05 14:07 | 25.53789 | 103.46062 | 20190 ft | 363 kts | 219° |
| 2026-05-05 14:07 | 25.51801 | 103.44391 | 19837 ft | 353 kts | 229° |
| 2026-05-05 14:07 | 25.50500 | 103.42212 | 19501 ft | 340 kts | 251° |
| 2026-05-05 14:07 | 25.50050 | 103.39687 | 19158 ft | 332 kts | 265° |
| 2026-05-05 14:08 | 25.49843 | 103.37123 | 18815 ft | 328 kts | 266° |
| 2026-05-05 14:08 | 25.49649 | 103.34621 | 18489 ft | 325 kts | 266° |
| 2026-05-05 14:08 | 25.49461 | 103.32177 | 18159 ft | 322 kts | 265° |
| 2026-05-05 14:08 | 25.49266 | 103.29718 | 17779 ft | 319 kts | 265° |
| 2026-05-05 14:09 | 25.49031 | 103.27320 | 17483 ft | 306 kts | 258° |
| 2026-05-05 14:09 | 25.48206 | 103.25206 | 17092 ft | 299 kts | 236° |
| 2026-05-05 14:09 | 25.46729 | 103.23629 | 16658 ft | 292 kts | 223° |
| 2026-05-05 14:09 | 25.46490 | 103.23416 | 16605 ft | 290 kts | 223° |
| 2026-05-05 14:10 | 25.45198 | 103.22267 | 16260 ft | 284 kts | 223° |
| 2026-05-05 14:10 | 25.43656 | 103.20898 | 15841 ft | 276 kts | 223° |
| 2026-05-05 14:10 | 25.42175 | 103.19580 | 15438 ft | 271 kts | 223° |
| 2026-05-05 14:10 | 25.40717 | 103.18289 | 15036 ft | 266 kts | 223° |
| 2026-05-05 14:11 | 25.39277 | 103.17033 | 14639 ft | 262 kts | 223° |
| 2026-05-05 14:11 | 25.37856 | 103.15800 | 14222 ft | 257 kts | 222° |
| 2026-05-05 14:11 | 25.36453 | 103.14583 | 13771 ft | 257 kts | 223° |
| 2026-05-05 14:11 | 25.35050 | 103.13364 | 13262 ft | 256 kts | 223° |
| 2026-05-05 14:12 | 25.33652 | 103.12149 | 12757 ft | 256 kts | 223° |
| 2026-05-05 14:12 | 25.32261 | 103.10938 | 12263 ft | 253 kts | 223° |
| 2026-05-05 14:12 | 25.30893 | 103.09745 | 11883 ft | 245 kts | 222° |
| 2026-05-05 14:12 | 25.29584 | 103.08605 | 11386 ft | 234 kts | 223° |
| 2026-05-05 14:13 | 25.28328 | 103.07511 | 10913 ft | 226 kts | 223° |
| 2026-05-05 14:13 | 25.27118 | 103.06455 | 10434 ft | 219 kts | 223° |
| 2026-05-05 14:13 | 25.25970 | 103.05449 | 10168 ft | 205 kts | 223° |
| 2026-05-05 14:13 | 25.24895 | 103.04499 | 9900 ft | 190 kts | 223° |
| 2026-05-05 14:14 | 25.23897 | 103.03623 | 9655 ft | 176 kts | 223° |
| 2026-05-05 14:14 | 25.22968 | 103.02811 | 9421 ft | 164 kts | 222° |
| 2026-05-05 14:14 | 25.22101 | 103.02054 | 9218 ft | 154 kts | 223° |
| 2026-05-05 14:14 | 25.21280 | 103.01337 | 9031 ft | 147 kts | 223° |
| 2026-05-05 14:15 | 25.20506 | 103.00662 | 8853 ft | 138 kts | 223° |
| 2026-05-05 14:15 | 25.19757 | 103.00008 | 8682 ft | 137 kts | 223° |
| 2026-05-05 14:15 | 25.19007 | 102.99353 | 8517 ft | 137 kts | 223° |
| 2026-05-05 14:15 | 25.18262 | 102.98703 | 8351 ft | 136 kts | 223° |
| 2026-05-05 14:16 | 25.16307 | 102.96999 | 7911 ft | 133 kts | 223° |
| 2026-05-05 14:16 | 25.15578 | 102.96370 | 7744 ft | 133 kts | 224° |
| 2026-05-05 14:17 | 25.14845 | 102.95717 | 7576 ft | 140 kts | 224° |
| 2026-05-05 14:17 | 25.14080 | 102.95039 | 7302 ft | 140 kts | 218° |
| 2026-05-05 14:17 | 25.13303 | 102.94379 | 6978 ft | 142 kts | 220° |
| 2026-05-05 14:17 | 25.12549 | 102.93720 | 6891 ft | 127 kts | 219° |
| 2026-05-05 14:18 | 25.11995 | 102.93235 | 6890 ft | 77 kts | 219° |
| 2026-05-05 14:18 | 25.11645 | 102.92931 | 6894 ft | 35 kts | 216° |
| 2026-05-05 14:18 | 25.11470 | 102.92877 | 6894 ft | 25 kts | 191° |
| 2026-05-05 14:18 | 25.11299 | 102.92839 | 6894 ft | 25 kts | 192° |
| 2026-05-05 14:19 | 25.11197 | 102.92859 | 6894 ft | 6 kts | 136° |
| 2026-05-05 14:19 | 25.11194 | 102.92861 | 6894 ft | 0 kts | 138° |